createdAt,value
2018-06-04T00:00:02.804Z,12.07
2018-06-04T00:02:31.584Z,12.00
2018-06-04T00:05:00.362Z,12.67
2018-06-04T00:07:28.966Z,12.13
2018-06-04T00:09:57.982Z,10.87
2018-06-04T00:12:26.795Z,12.03
2018-06-04T00:17:52.755Z,11.93
2018-06-04T00:20:21.536Z,11.83
2018-06-04T00:22:50.363Z,12.07
2018-06-04T00:25:18.928Z,13.03
2018-06-04T00:27:47.626Z,13.80
2018-06-04T00:30:16.197Z,12.87
2018-06-04T00:32:44.801Z,12.20
2018-06-04T00:35:13.490Z,12.53
2018-06-04T00:37:42.271Z,13.83
2018-06-04T00:40:11.029Z,14.33
2018-06-04T00:42:39.920Z,13.20
2018-06-04T00:45:08.706Z,13.03
2018-06-04T00:47:37.706Z,13.83
2018-06-04T00:50:06.493Z,13.83
2018-06-04T00:52:35.282Z,14.33
2018-06-04T00:55:04.054Z,15.03
2018-06-04T00:57:32.869Z,14.37
2018-06-04T01:00:01.706Z,15.50
2018-06-04T01:02:30.494Z,15.00
2018-06-04T01:04:59.262Z,13.50
2018-06-04T01:07:28.041Z,15.00
2018-06-04T01:09:56.834Z,14.33
2018-06-04T01:12:25.698Z,13.70
2018-06-04T01:14:54.489Z,13.67
2018-06-04T01:17:23.277Z,14.10
2018-06-04T01:19:52.066Z,13.17
2018-06-04T01:22:20.866Z,13.73
2018-06-04T01:24:49.423Z,13.77
2018-06-04T01:27:18.130Z,14.07
2018-06-04T01:29:46.692Z,13.97
2018-06-04T01:32:15.513Z,13.23
2018-06-04T01:34:44.290Z,13.77
2018-06-04T01:37:13.086Z,15.23
2018-06-04T01:39:41.874Z,13.93
2018-06-04T01:42:10.450Z,12.90
2018-06-04T01:44:39.130Z,14.93
2018-06-04T01:47:07.921Z,14.30
2018-06-04T01:49:36.681Z,14.67
2018-06-04T01:52:05.694Z,15.80
2018-06-04T01:54:34.466Z,15.43
2018-06-04T01:57:03.258Z,14.30
2018-06-04T01:59:32.046Z,14.23
2018-06-04T02:02:01.085Z,15.27
2018-06-04T02:04:29.866Z,16.47
2018-06-04T02:06:58.637Z,16.27
2018-06-04T02:09:27.442Z,16.90
2018-06-04T02:11:56.218Z,15.40
2018-06-04T02:14:25.122Z,16.07
2018-06-04T02:16:53.756Z,15.90
2018-06-04T02:19:22.474Z,15.70
2018-06-04T02:21:51.270Z,16.77
2018-06-04T02:24:20.066Z,16.40
2018-06-04T02:26:48.665Z,15.53
2018-06-04T02:29:17.393Z,15.93
2018-06-04T02:31:46.186Z,15.13
2018-06-04T02:34:15.018Z,14.93
2018-06-04T02:36:43.589Z,16.23
2018-06-04T02:39:12.327Z,15.50
2018-06-04T02:41:41.098Z,15.20
2018-06-04T02:44:09.968Z,16.13
2018-06-04T02:46:38.671Z,15.80
2018-06-04T02:49:07.357Z,14.33
2018-06-04T02:51:36.137Z,15.67
2018-06-04T02:54:04.926Z,15.47
2018-06-04T02:56:33.708Z,16.40
2018-06-04T02:59:02.502Z,15.87
2018-06-04T03:01:31.274Z,15.77
2018-06-04T03:03:59.888Z,16.37
2018-06-04T03:06:28.579Z,15.27
2018-06-04T03:08:57.346Z,15.97
2018-06-04T03:11:26.122Z,16.83
2018-06-04T03:13:54.769Z,17.03
2018-06-04T03:16:23.443Z,16.87
2018-06-04T03:18:52.234Z,16.43
2018-06-04T03:21:21.042Z,17.63
2018-06-04T03:23:49.849Z,17.23
2018-06-04T03:26:18.718Z,17.33
2018-06-04T03:28:47.522Z,16.07
2018-06-04T03:31:16.319Z,18.53
2018-06-04T03:33:45.218Z,17.90
2018-06-04T03:36:13.979Z,17.93
2018-06-04T03:38:43.109Z,20.83
2018-06-04T03:41:11.656Z,19.23
2018-06-04T03:43:40.370Z,18.70
2018-06-04T03:46:08.929Z,18.40
2018-06-04T03:48:37.621Z,20.50
2018-06-04T03:51:06.394Z,19.43
2018-06-04T03:53:35.187Z,20.17
2018-06-04T03:56:03.978Z,20.83
2018-06-04T03:58:32.758Z,20.47
2018-06-04T04:01:01.551Z,20.07
2018-06-04T04:03:30.338Z,19.00
2018-06-04T04:05:59.125Z,18.73
2018-06-04T04:08:27.926Z,19.27
2018-06-04T04:10:56.747Z,19.07
2018-06-04T04:13:25.333Z,18.97
2018-06-04T04:15:54.009Z,19.73
2018-06-04T04:18:22.597Z,18.77
2018-06-04T04:20:51.333Z,18.27
2018-06-04T04:23:20.341Z,18.00
2018-06-04T04:25:49.150Z,17.80
2018-06-04T04:28:17.971Z,17.63
2018-06-04T04:30:46.570Z,17.43
2018-06-04T04:33:15.362Z,16.47
2018-06-04T04:35:44.215Z,17.10
2018-06-04T04:38:12.824Z,17.67
2018-06-04T04:40:41.523Z,19.60
2018-06-04T04:43:10.421Z,18.87
2018-06-04T04:45:39.230Z,18.10
2018-06-04T04:48:08.017Z,17.67
2018-06-04T04:50:36.806Z,19.37
2018-06-04T04:53:05.640Z,19.70
2018-06-04T04:55:34.526Z,18.37
2018-06-04T04:58:03.398Z,17.90
2018-06-04T05:00:32.300Z,18.93
2018-06-04T05:03:01.074Z,17.70
2018-06-04T05:05:29.878Z,18.33
2018-06-04T05:07:58.478Z,17.73
2018-06-04T05:10:27.222Z,19.17
2018-06-04T05:12:56.010Z,18.70
2018-06-04T05:15:24.834Z,19.83
2018-06-04T05:17:53.465Z,21.00
2018-06-04T05:20:22.167Z,19.30
2018-06-04T05:22:50.958Z,21.73
2018-06-04T05:25:19.762Z,21.13
2018-06-04T05:27:48.531Z,19.10
2018-06-04T05:30:17.352Z,20.23
2018-06-04T05:32:45.905Z,18.37
2018-06-04T05:35:14.609Z,19.77
2018-06-04T05:37:43.366Z,19.27
2018-06-04T05:40:12.134Z,19.67
2018-06-04T05:42:40.898Z,18.67
2018-06-04T05:45:09.745Z,17.70
2018-06-04T05:47:38.518Z,16.93
2018-06-04T05:50:07.339Z,16.17
2018-06-04T05:52:36.110Z,17.67
2018-06-04T05:55:05.110Z,18.23
2018-06-04T05:57:34.074Z,17.93
2018-06-04T06:00:03.135Z,17.47
2018-06-04T06:02:31.918Z,18.20
2018-06-04T06:05:00.517Z,17.07
2018-06-04T06:07:29.230Z,16.83
2018-06-04T06:09:58.057Z,19.93
2018-06-04T06:12:26.829Z,17.20
2018-06-04T06:14:55.634Z,18.47
2018-06-04T06:17:24.453Z,18.10
2018-06-04T06:19:53.292Z,18.50
2018-06-04T06:22:22.061Z,17.13
2018-06-04T06:24:50.985Z,19.23
2018-06-04T06:27:19.780Z,18.00
2018-06-04T06:29:48.558Z,18.27
2018-06-04T06:32:17.393Z,19.40
2018-06-04T06:34:46.193Z,20.63
2018-06-04T06:37:14.959Z,19.60
2018-06-04T06:39:43.555Z,21.03
2018-06-04T06:42:12.258Z,21.70
2018-06-04T06:44:41.026Z,21.37
2018-06-04T06:47:09.801Z,21.40
2018-06-04T06:49:38.375Z,20.93
2018-06-04T06:52:07.073Z,25.40
2018-06-04T06:54:35.665Z,21.93
2018-06-04T06:57:04.618Z,19.87
2018-06-04T06:59:33.418Z,22.80
2018-06-04T07:02:02.248Z,22.63
2018-06-04T07:04:30.981Z,22.67
2018-06-04T07:06:59.779Z,23.23
2018-06-04T07:09:28.586Z,22.80
2018-06-04T07:11:57.382Z,22.63
2018-06-04T07:14:26.015Z,23.83
2018-06-04T07:16:54.666Z,22.67
2018-06-04T07:19:23.461Z,20.47
2018-06-04T07:21:52.286Z,21.30
2018-06-04T07:24:21.078Z,21.47
2018-06-04T07:26:49.929Z,17.43
2018-06-04T07:29:18.692Z,16.77
2018-06-04T07:31:47.297Z,18.10
2018-06-04T07:34:16.081Z,18.80
2018-06-04T07:36:44.895Z,16.20
2018-06-04T07:39:13.750Z,15.83
2018-06-04T07:41:42.689Z,17.73
2018-06-04T07:44:11.406Z,16.83
2018-06-04T07:46:40.252Z,19.63
2018-06-04T07:49:09.021Z,18.30
2018-06-04T07:51:37.843Z,18.10
2018-06-04T07:54:06.810Z,17.73
2018-06-04T07:56:35.653Z,17.53
2018-06-04T07:59:04.646Z,19.80
2018-06-04T08:01:33.465Z,20.27
2018-06-04T08:04:02.055Z,20.03
2018-06-04T08:06:30.812Z,19.77
2018-06-04T08:08:59.590Z,18.80
2018-06-04T08:11:28.367Z,19.17
2018-06-04T08:13:57.179Z,18.77
2018-06-04T08:16:25.977Z,20.33
2018-06-04T08:18:54.741Z,19.33
2018-06-04T08:21:23.575Z,16.00
2018-06-04T08:23:52.190Z,16.73
2018-06-04T08:26:20.854Z,15.20
2018-06-04T08:28:49.637Z,14.47
2018-06-04T08:31:18.439Z,13.33
2018-06-04T08:33:47.194Z,12.40
2018-06-04T08:36:15.962Z,12.80
2018-06-04T08:38:44.902Z,12.23
2018-06-04T08:41:13.687Z,12.30
2018-06-04T08:43:42.685Z,12.10
2018-06-04T08:46:11.478Z,11.87
2018-06-04T08:48:40.246Z,12.80
2018-06-04T08:51:08.837Z,13.20
2018-06-04T08:53:37.787Z,13.70
2018-06-04T08:56:06.573Z,12.40
2018-06-04T08:58:35.338Z,12.03
2018-06-04T09:01:04.124Z,11.53
2018-06-04T09:03:32.904Z,13.43
2018-06-04T09:06:01.678Z,12.67
2018-06-04T09:08:30.445Z,11.73
2018-06-04T09:10:59.013Z,11.90
2018-06-04T09:13:27.681Z,12.27
2018-06-04T09:15:56.480Z,11.83
2018-06-04T09:18:25.249Z,11.30
2018-06-04T09:20:54.078Z,11.30
2018-06-04T09:23:22.661Z,11.43
2018-06-04T09:25:51.350Z,12.80
2018-06-04T09:28:20.135Z,13.37
2018-06-04T09:30:48.927Z,11.57
2018-06-04T09:33:17.694Z,11.90
2018-06-04T09:35:46.475Z,11.40
2018-06-04T09:38:15.262Z,12.47
2018-06-04T09:40:44.041Z,12.27
2018-06-04T09:43:12.822Z,11.87
2018-06-04T09:45:41.586Z,11.10
2018-06-04T09:48:10.394Z,12.30
2018-06-04T09:50:39.171Z,11.87
2018-06-04T09:53:07.952Z,12.17
2018-06-04T09:55:36.723Z,11.70
2018-06-04T09:58:05.379Z,12.57
2018-06-04T10:00:39.068Z,11.13
2018-06-04T10:03:07.838Z,11.73
2018-06-04T10:05:36.606Z,12.20
2018-06-04T10:08:05.421Z,11.77
2018-06-04T10:10:34.211Z,10.80
2018-06-04T10:13:02.986Z,11.23
2018-06-04T10:15:31.754Z,10.93
2018-06-04T10:18:00.534Z,10.90
2018-06-04T10:20:29.322Z,10.87
2018-06-04T10:22:58.125Z,11.80
2018-06-04T10:25:26.882Z,11.60
2018-06-04T10:27:55.530Z,12.27
2018-06-04T10:30:24.475Z,11.53
2018-06-04T10:32:53.279Z,11.90
2018-06-04T10:35:22.061Z,12.37
2018-06-04T10:37:50.679Z,11.53
2018-06-04T10:40:19.381Z,10.90
2018-06-04T10:42:48.182Z,11.17
2018-06-04T10:45:16.959Z,11.60
2018-06-04T10:47:45.781Z,11.47
2018-06-04T10:50:14.349Z,11.20
2018-06-04T10:52:42.821Z,10.77
2018-06-04T10:55:11.506Z,12.07
2018-06-04T10:57:40.301Z,11.60
2018-06-04T11:00:09.079Z,12.30
2018-06-04T11:02:37.870Z,12.40
2018-06-04T11:05:06.654Z,11.80
2018-06-04T11:07:35.465Z,12.37
2018-06-04T11:10:04.357Z,12.33
2018-06-04T11:12:33.157Z,12.20
2018-06-04T11:15:01.745Z,12.50
2018-06-04T11:17:30.470Z,11.57
2018-06-04T11:19:59.252Z,11.60
2018-06-04T11:22:28.046Z,11.37
2018-06-04T11:24:56.814Z,12.00
2018-06-04T11:27:25.591Z,11.83
2018-06-04T11:29:54.722Z,11.77
2018-06-04T11:32:23.503Z,11.47
2018-06-04T11:34:52.260Z,9.47
2018-06-04T11:37:21.052Z,9.77
2018-06-04T11:39:49.833Z,11.63
2018-06-04T11:42:18.413Z,10.73
2018-06-04T11:44:47.102Z,9.90
2018-06-04T11:47:15.697Z,9.27
2018-06-04T11:49:44.727Z,9.47
2018-06-04T11:52:13.487Z,10.47
2018-06-04T11:54:42.289Z,9.70
2018-06-04T11:57:11.057Z,9.40
2018-06-04T11:59:39.838Z,9.40
2018-06-04T12:02:08.416Z,9.83
2018-06-04T12:04:37.153Z,10.53
2018-06-04T12:07:05.917Z,10.67
2018-06-04T12:09:34.689Z,10.07
2018-06-04T12:12:03.463Z,9.47
2018-06-04T12:14:32.249Z,9.67
2018-06-04T12:17:01.013Z,9.43
2018-06-04T12:19:29.876Z,10.77
2018-06-04T12:21:58.669Z,9.67
2018-06-04T12:24:27.453Z,11.23
2018-06-04T12:26:56.226Z,10.37
2018-06-04T12:29:25.017Z,9.37
2018-06-04T12:31:53.797Z,9.37
2018-06-04T12:34:22.581Z,8.93
2018-06-04T12:36:51.339Z,9.33
2018-06-04T12:39:20.125Z,8.37
2018-06-04T12:41:48.921Z,8.03
2018-06-04T12:44:17.687Z,9.30
2018-06-04T12:46:46.505Z,10.20
2018-06-04T12:49:15.301Z,8.97
2018-06-04T12:51:44.087Z,11.00
2018-06-04T12:54:12.692Z,10.10
2018-06-04T12:56:41.414Z,10.27
2018-06-04T12:59:10.201Z,9.53
2018-06-04T13:01:38.970Z,11.20
2018-06-04T13:04:07.742Z,9.43
2018-06-04T13:06:36.522Z,9.27
2018-06-04T13:09:07.266Z,9.60
2018-06-04T13:11:36.031Z,8.60
2018-06-04T13:14:04.633Z,9.00
2018-06-04T13:16:33.300Z,9.77
2018-06-04T13:19:01.913Z,10.33
2018-06-04T13:21:30.658Z,8.93
2018-06-04T13:24:00.696Z,8.70
2018-06-04T13:26:29.723Z,7.83
2018-06-04T13:28:58.497Z,8.03
2018-06-04T13:31:27.266Z,8.30
2018-06-04T13:33:55.825Z,8.53
2018-06-04T13:36:24.501Z,8.30
2018-06-04T13:38:53.409Z,9.07
2018-06-04T13:41:22.181Z,8.13
2018-06-04T13:43:51.026Z,8.23
2018-06-04T13:46:19.785Z,7.03
2018-06-04T13:48:48.553Z,7.40
2018-06-04T13:51:17.314Z,7.83
2018-06-04T13:53:46.092Z,7.10
2018-06-04T13:56:14.867Z,6.60
2018-06-04T13:58:43.629Z,6.83
2018-06-04T14:01:12.175Z,7.23
2018-06-04T14:03:41.033Z,6.50
2018-06-04T14:06:09.818Z,6.43
2018-06-04T14:08:38.596Z,7.20
2018-06-04T14:11:07.361Z,6.07
2018-06-04T14:13:35.994Z,6.20
2018-06-04T14:16:04.749Z,7.20
2018-06-04T14:18:33.545Z,6.53
2018-06-04T14:21:02.513Z,6.57
2018-06-04T14:23:31.305Z,6.83
2018-06-04T14:26:00.066Z,7.37
2018-06-04T14:28:28.858Z,7.47
2018-06-04T14:30:57.681Z,7.63
2018-06-04T14:33:26.307Z,7.07
2018-06-04T14:35:54.968Z,7.07
2018-06-04T14:38:23.741Z,7.63
2018-06-04T14:40:52.337Z,7.53
2018-06-04T14:43:21.029Z,7.73
2018-06-04T14:45:49.818Z,8.50
2018-06-04T14:48:18.590Z,7.50
2018-06-04T14:50:47.189Z,7.10
2018-06-04T14:53:15.861Z,7.10
2018-06-04T14:55:44.636Z,7.27
2018-06-04T14:58:13.409Z,6.57
2018-06-04T15:00:43.096Z,7.27
2018-06-04T15:03:12.289Z,7.20
2018-06-04T15:05:41.041Z,7.40
2018-06-04T15:08:09.821Z,7.43
2018-06-04T15:10:38.384Z,7.17
2018-06-04T15:13:07.081Z,7.27
2018-06-04T15:15:36.007Z,6.33
2018-06-04T15:18:05.220Z,6.77
2018-06-04T15:20:33.969Z,6.80
2018-06-04T15:23:02.580Z,6.80
2018-06-04T15:25:31.253Z,6.73
2018-06-04T15:28:00.021Z,6.90
2018-06-04T15:30:29.084Z,6.33
2018-06-04T15:32:57.865Z,6.77
2018-06-04T15:35:26.990Z,6.83
2018-06-04T15:37:55.874Z,6.30
2018-06-04T15:40:24.522Z,7.40
2018-06-04T15:42:53.286Z,6.33
2018-06-04T15:45:22.069Z,7.40
2018-06-04T15:47:50.649Z,6.97
2018-06-04T15:50:19.337Z,6.37
2018-06-04T15:52:47.868Z,6.27
2018-06-04T15:55:16.553Z,7.33
2018-06-04T15:57:45.334Z,6.23
2018-06-04T16:00:14.161Z,6.93
2018-06-04T16:02:42.935Z,6.60
2018-06-04T16:05:11.713Z,6.87
2018-06-04T16:07:40.491Z,6.80
2018-06-04T16:10:09.264Z,6.90
2018-06-04T16:12:38.013Z,6.53
2018-06-04T16:15:06.814Z,6.93
2018-06-04T16:17:35.358Z,6.83
2018-06-04T16:20:04.060Z,7.17
2018-06-04T16:22:32.833Z,6.93
2018-06-04T16:25:01.618Z,6.73
2018-06-04T16:27:30.385Z,6.90
2018-06-04T16:29:59.152Z,6.50
2018-06-04T16:32:27.933Z,6.77
2018-06-04T16:34:56.717Z,14.03
2018-06-04T16:37:25.565Z,22.47
2018-06-04T16:39:54.101Z,7.10
2018-06-04T16:42:22.777Z,7.50
2018-06-04T16:44:51.567Z,9.73
2018-06-04T16:47:20.348Z,8.23
2018-06-04T16:49:49.129Z,8.10
2018-06-04T16:52:17.812Z,6.77
2018-06-04T16:54:46.472Z,6.33
2018-06-04T16:57:15.241Z,6.60
2018-06-04T16:59:44.006Z,6.80
2018-06-04T17:02:12.973Z,7.17
2018-06-04T17:04:41.625Z,8.30
2018-06-04T17:07:10.289Z,7.33
2018-06-04T17:09:39.057Z,6.97
2018-06-04T17:12:07.914Z,6.53
2018-06-04T17:14:36.905Z,7.10
2018-06-04T17:17:05.702Z,6.73
2018-06-04T17:19:34.265Z,6.67
2018-06-04T17:22:02.978Z,6.60
2018-06-04T17:24:31.567Z,7.20
2018-06-04T17:27:00.057Z,7.57
2018-06-04T17:29:28.722Z,6.33
2018-06-04T17:31:57.505Z,7.70
2018-06-04T17:34:26.273Z,7.07
2018-06-04T17:36:55.059Z,7.30
2018-06-04T17:39:24.466Z,8.33
2018-06-04T17:41:53.260Z,8.17
2018-06-04T17:44:22.017Z,8.60
2018-06-04T17:46:50.862Z,10.30
2018-06-04T17:49:19.464Z,8.20
2018-06-04T17:51:48.144Z,9.50
2018-06-04T17:54:16.921Z,10.00
2018-06-04T17:56:45.489Z,10.53
2018-06-04T17:59:14.394Z,10.90
2018-06-04T18:01:43.177Z,10.57
2018-06-04T18:04:11.773Z,10.77
2018-06-04T18:06:41.366Z,9.97
2018-06-04T18:09:10.640Z,11.07
2018-06-04T18:11:39.414Z,10.90
2018-06-04T18:14:08.342Z,10.40
2018-06-04T18:16:37.286Z,10.30
2018-06-04T18:19:06.033Z,11.23
2018-06-04T18:21:34.725Z,11.57
2018-06-04T18:24:03.504Z,10.97
2018-06-04T18:26:32.363Z,11.03
2018-06-04T18:29:01.137Z,11.93
2018-06-04T18:31:29.899Z,12.10
2018-06-04T18:33:58.718Z,11.67
2018-06-04T18:36:27.501Z,11.80
2018-06-04T18:38:56.324Z,12.27
2018-06-04T18:41:25.944Z,11.57
2018-06-04T18:43:55.775Z,11.33
2018-06-04T18:46:24.703Z,12.00
2018-06-04T18:48:53.653Z,12.73
2018-06-04T18:51:22.619Z,12.83
2018-06-04T18:53:53.132Z,12.40
2018-06-04T18:56:21.905Z,10.97
2018-06-04T18:58:50.685Z,11.30
2018-06-04T19:01:19.509Z,12.03
2018-06-04T19:03:48.428Z,12.80
2018-06-04T19:06:17.190Z,11.43
2018-06-04T19:08:46.028Z,12.17
2018-06-04T19:11:14.745Z,11.27
2018-06-04T19:13:43.533Z,11.90
2018-06-04T19:16:13.117Z,10.90
2018-06-04T19:18:41.996Z,11.33
2018-06-04T19:21:10.798Z,12.20
2018-06-04T19:23:39.564Z,11.37
2018-06-04T19:26:08.337Z,12.53
2018-06-04T19:28:37.131Z,12.87
2018-06-04T19:31:05.952Z,11.50
2018-06-04T19:33:34.728Z,12.37
2018-06-04T19:36:03.508Z,12.67
2018-06-04T19:38:32.300Z,12.90
2018-06-04T19:41:01.101Z,13.60
2018-06-04T19:43:29.913Z,12.87
2018-06-04T19:45:58.776Z,13.13
2018-06-04T19:48:27.662Z,14.40
2018-06-04T19:50:56.432Z,14.20
2018-06-04T19:53:25.327Z,14.03
2018-06-04T19:55:54.109Z,14.97
2018-06-04T19:58:22.905Z,14.07
2018-06-04T20:00:51.690Z,14.10
2018-06-04T20:03:20.509Z,14.73
2018-06-04T20:05:49.317Z,14.10
2018-06-04T20:08:18.160Z,13.20
2018-06-04T20:10:46.939Z,13.17
2018-06-04T20:13:15.733Z,14.20
2018-06-04T20:15:44.524Z,15.27
2018-06-04T20:18:13.309Z,15.57
2018-06-04T20:20:42.093Z,14.43
2018-06-04T20:23:10.981Z,14.37
2018-06-04T20:25:39.775Z,16.13
2018-06-04T20:28:08.846Z,14.27
2018-06-04T20:30:37.646Z,14.17
2018-06-04T20:33:06.487Z,15.47
2018-06-04T20:35:35.225Z,13.83
2018-06-04T20:38:04.027Z,14.50
2018-06-04T20:40:32.869Z,13.53
2018-06-04T20:43:01.635Z,15.73
2018-06-04T20:45:30.432Z,15.67
2018-06-04T20:47:59.294Z,14.93
2018-06-04T20:50:28.090Z,15.00
2018-06-04T20:52:56.874Z,15.53
2018-06-04T20:55:25.644Z,14.10
2018-06-04T20:57:54.433Z,13.97
2018-06-04T21:00:23.205Z,14.37
2018-06-04T21:02:51.973Z,12.47
2018-06-04T21:05:20.760Z,13.17
2018-06-04T21:07:49.658Z,13.77
2018-06-04T21:10:18.442Z,14.23
2018-06-04T21:12:47.200Z,14.20
2018-06-04T21:15:16.077Z,13.17
2018-06-04T21:17:44.952Z,12.53
2018-06-04T21:20:13.753Z,13.03
2018-06-04T21:22:42.451Z,12.07
2018-06-04T21:25:11.198Z,12.10
2018-06-04T21:27:39.985Z,11.93
2018-06-04T21:30:08.813Z,11.40
2018-06-04T21:32:37.605Z,12.20
2018-06-04T21:35:06.461Z,10.73
2018-06-04T21:37:35.269Z,11.33
2018-06-04T21:40:04.400Z,10.63
2018-06-04T21:42:33.161Z,9.93
2018-06-04T21:45:02.002Z,10.10
2018-06-04T21:47:30.762Z,8.63
2018-06-04T21:49:59.553Z,9.50
2018-06-04T21:52:28.461Z,9.63
2018-06-04T21:54:57.322Z,8.23
2018-06-04T21:57:26.102Z,8.67
2018-06-04T21:59:54.704Z,8.43
2018-06-04T22:02:23.461Z,7.97
2018-06-04T22:04:52.277Z,8.43
2018-06-04T22:07:21.046Z,9.67
2018-06-04T22:09:49.653Z,8.80
2018-06-04T22:12:18.341Z,8.43
2018-06-04T22:14:47.609Z,8.57
2018-06-04T22:17:16.392Z,8.43
2018-06-04T22:19:45.193Z,8.30
2018-06-04T22:22:13.786Z,8.47
2018-06-04T22:24:42.477Z,7.80
2018-06-04T22:27:11.213Z,7.40
2018-06-04T22:29:39.897Z,7.70
2018-06-04T22:32:08.703Z,8.03
2018-06-04T22:34:37.865Z,7.20
2018-06-04T22:37:06.614Z,8.30
2018-06-04T22:39:35.238Z,7.77
2018-06-04T22:42:03.967Z,8.30
2018-06-04T22:44:32.805Z,7.10
2018-06-04T22:47:01.574Z,7.27
2018-06-04T22:49:30.396Z,7.33
2018-06-04T22:51:59.157Z,7.90
2018-06-04T22:54:27.971Z,8.10
2018-06-04T22:56:56.732Z,6.73
2018-06-04T22:59:25.682Z,7.73
2018-06-04T23:01:54.460Z,7.23
2018-06-04T23:04:23.293Z,7.23
2018-06-04T23:06:51.992Z,7.70
2018-06-04T23:09:20.855Z,7.77
2018-06-04T23:11:49.977Z,9.93
2018-06-04T23:14:18.587Z,7.30
2018-06-04T23:16:47.385Z,7.20
2018-06-04T23:19:16.256Z,7.33
2018-06-04T23:21:45.030Z,8.20
2018-06-04T23:24:13.851Z,7.57
2018-06-04T23:26:42.654Z,7.90
2018-06-04T23:29:11.505Z,7.87
2018-06-04T23:31:40.346Z,7.77
2018-06-04T23:34:09.128Z,8.50
2018-06-04T23:36:37.957Z,7.80
2018-06-04T23:39:07.296Z,8.40
2018-06-04T23:41:36.009Z,8.37
2018-06-04T23:44:04.801Z,9.00
2018-06-04T23:46:33.717Z,8.70
2018-06-04T23:49:02.501Z,9.70
2018-06-04T23:51:31.449Z,8.50
2018-06-04T23:54:00.260Z,8.80
2018-06-04T23:56:29.061Z,9.40
2018-06-04T23:58:57.817Z,9.00
